sensor_id;sensor_type;location;lat;lon;timestamp;pressure;altitude;pressure_sealevel;temperature;humidity
47670;BME280;33408;52.062;11.722;2023-01-25T00:00:49;103390.34;;;1.13;100.00
47670;BME280;33408;52.062;11.722;2023-01-25T00:03:16;103386.50;;;1.33;100.00
47670;BME280;33408;52.062;11.722;2023-01-25T00:05:42;103390.50;;;1.42;100.00
47670;BME280;33408;52.062;11.722;2023-01-25T00:08:09;103396.69;;;1.46;100.00
47670;BME280;33408;52.062;11.722;2023-01-25T00:10:35;103388.81;;;1.56;100.00
47670;BME280;33408;52.062;11.722;2023-01-25T00:13:02;103391.09;;;1.52;100.00
47670;BME280;33408;52.062;11.722;2023-01-25T00:15:30;103378.34;;;1.25;100.00
47670;BME280;33408;52.062;11.722;2023-01-25T00:17:57;103381.50;;;1.21;100.00
47670;BME280;33408;52.062;11.722;2023-01-25T00:20:23;103379.16;;;1.11;100.00
47670;BME280;33408;52.062;11.722;2023-01-25T00:22:50;103373.44;;;1.28;100.00
47670;BME280;33408;52.062;11.722;2023-01-25T00:25:16;103376.13;;;1.44;100.00
47670;BME280;33408;52.062;11.722;2023-01-25T00:27:46;103374.19;;;1.40;100.00
47670;BME280;33408;52.062;11.722;2023-01-25T00:30:12;103373.28;;;1.40;100.00
47670;BME280;33408;52.062;11.722;2023-01-25T00:32:53;103377.25;;;1.35;100.00
47670;BME280;33408;52.062;11.722;2023-01-25T00:35:29;103370.78;;;1.26;100.00
47670;BME280;33408;52.062;11.722;2023-01-25T00:37:55;103367.53;;;1.16;100.00
47670;BME280;33408;52.062;11.722;2023-01-25T00:40:22;103364.50;;;0.95;100.00
47670;BME280;33408;52.062;11.722;2023-01-25T00:42:48;103364.66;;;1.38;100.00
47670;BME280;33408;52.062;11.722;2023-01-25T00:45:15;103368.69;;;1.34;100.00
47670;BME280;33408;52.062;11.722;2023-01-25T00:47:41;103364.69;;;1.11;100.00
47670;BME280;33408;52.062;11.722;2023-01-25T00:50:10;103361.22;;;1.24;100.00
47670;BME280;33408;52.062;11.722;2023-01-25T00:52:36;103350.94;;;1.22;100.00
47670;BME280;33408;52.062;11.722;2023-01-25T00:55:04;103350.81;;;1.34;100.00
47670;BME280;33408;52.062;11.722;2023-01-25T00:57:30;103352.03;;;1.54;100.00
47670;BME280;33408;52.062;11.722;2023-01-25T00:59:57;103345.38;;;1.71;100.00
47670;BME280;33408;52.062;11.722;2023-01-25T01:02:23;103336.91;;;1.72;100.00
47670;BME280;33408;52.062;11.722;2023-01-25T01:04:50;103334.81;;;1.80;100.00
47670;BME280;33408;52.062;11.722;2023-01-25T01:07:18;103336.59;;;1.81;100.00
47670;BME280;33408;52.062;11.722;2023-01-25T01:09:44;103332.31;;;1.67;100.00
47670;BME280;33408;52.062;11.722;2023-01-25T01:12:11;103332.25;;;1.80;100.00
47670;BME280;33408;52.062;11.722;2023-01-25T01:14:38;103325.22;;;1.76;100.00
47670;BME280;33408;52.062;11.722;2023-01-25T01:17:04;103326.19;;;1.93;100.00
47670;BME280;33408;52.062;11.722;2023-01-25T01:19:31;103322.84;;;1.94;100.00
47670;BME280;33408;52.062;11.722;2023-01-25T01:21:57;103315.50;;;1.85;100.00
47670;BME280;33408;52.062;11.722;2023-01-25T01:24:25;103314.88;;;1.74;100.00
47670;BME280;33408;52.062;11.722;2023-01-25T01:26:52;103313.41;;;1.93;100.00
47670;BME280;33408;52.062;11.722;2023-01-25T01:29:18;103308.72;;;1.86;100.00
47670;BME280;33408;52.062;11.722;2023-01-25T01:31:45;103300.41;;;1.75;100.00
47670;BME280;33408;52.062;11.722;2023-01-25T01:34:12;103291.44;;;1.81;100.00
47670;BME280;33408;52.062;11.722;2023-01-25T01:36:39;103289.16;;;1.86;100.00
47670;BME280;33408;52.062;11.722;2023-01-25T01:39:06;103287.81;;;1.93;100.00
47670;BME280;33408;52.062;11.722;2023-01-25T01:41:35;103273.44;;;1.80;100.00
47670;BME280;33408;52.062;11.722;2023-01-25T01:44:01;103266.91;;;1.70;100.00
47670;BME280;33408;52.062;11.722;2023-01-25T01:46:30;103276.81;;;1.51;100.00
47670;BME280;33408;52.062;11.722;2023-01-25T01:49:00;103274.56;;;1.55;100.00
47670;BME280;33408;52.062;11.722;2023-01-25T01:51:38;103271.25;;;1.86;100.00
47670;BME280;33408;52.062;11.722;2023-01-25T01:54:11;103270.63;;;1.90;100.00
47670;BME280;33408;52.062;11.722;2023-01-25T01:56:45;103273.59;;;1.68;100.00
47670;BME280;33408;52.062;11.722;2023-01-25T01:59:13;103274.09;;;1.48;100.00
47670;BME280;33408;52.062;11.722;2023-01-25T02:01:40;103260.03;;;1.69;100.00
47670;BME280;33408;52.062;11.722;2023-01-25T02:04:07;103263.97;;;1.64;100.00
47670;BME280;33408;52.062;11.722;2023-01-25T02:06:39;103268.66;;;1.71;100.00
47670;BME280;33408;52.062;11.722;2023-01-25T02:09:07;103264.97;;;1.81;100.00
47670;BME280;33408;52.062;11.722;2023-01-25T02:11:34;103261.00;;;1.71;100.00
47670;BME280;33408;52.062;11.722;2023-01-25T02:14:04;103253.44;;;1.88;100.00
47670;BME280;33408;52.062;11.722;2023-01-25T02:16:32;103254.56;;;1.93;100.00
47670;BME280;33408;52.062;11.722;2023-01-25T02:18:59;103258.03;;;1.93;100.00
47670;BME280;33408;52.062;11.722;2023-01-25T02:21:32;103253.00;;;2.10;100.00
47670;BME280;33408;52.062;11.722;2023-01-25T02:24:04;103255.88;;;1.86;100.00
47670;BME280;33408;52.062;11.722;2023-01-25T02:26:34;103247.72;;;1.92;100.00
47670;BME280;33408;52.062;11.722;2023-01-25T02:29:03;103243.09;;;2.01;100.00
47670;BME280;33408;52.062;11.722;2023-01-25T02:31:30;103249.38;;;2.06;100.00
47670;BME280;33408;52.062;11.722;2023-01-25T02:33:57;103245.94;;;1.91;100.00
47670;BME280;33408;52.062;11.722;2023-01-25T02:36:26;103246.91;;;1.93;100.00
47670;BME280;33408;52.062;11.722;2023-01-25T02:38:55;103239.66;;;2.15;100.00
47670;BME280;33408;52.062;11.722;2023-01-25T02:41:26;103233.41;;;2.10;100.00
47670;BME280;33408;52.062;11.722;2023-01-25T02:43:57;103225.97;;;2.15;100.00
47670;BME280;33408;52.062;11.722;2023-01-25T02:46:26;103234.34;;;2.12;100.00
47670;BME280;33408;52.062;11.722;2023-01-25T03:02:21;103233.22;;;2.07;100.00
47670;BME280;33408;52.062;11.722;2023-01-25T03:04:47;103234.91;;;2.07;100.00
47670;BME280;33408;52.062;11.722;2023-01-25T03:07:15;103234.56;;;2.00;100.00
47670;BME280;33408;52.062;11.722;2023-01-25T03:09:41;103245.03;;;2.05;100.00
47670;BME280;33408;52.062;11.722;2023-01-25T03:12:08;103243.28;;;2.04;100.00
47670;BME280;33408;52.062;11.722;2023-01-25T03:14:35;103226.53;;;1.94;100.00
47670;BME280;33408;52.062;11.722;2023-01-25T03:17:01;103226.59;;;1.96;100.00
47670;BME280;33408;52.062;11.722;2023-01-25T03:19:29;103226.88;;;1.86;100.00
47670;BME280;33408;52.062;11.722;2023-01-25T03:21:56;103218.75;;;1.93;100.00
47670;BME280;33408;52.062;11.722;2023-01-25T03:24:23;103229.00;;;2.08;100.00
47670;BME280;33408;52.062;11.722;2023-01-25T03:26:49;103232.41;;;1.78;100.00
47670;BME280;33408;52.062;11.722;2023-01-25T03:29:39;103231.38;;;1.75;100.00
47670;BME280;33408;52.062;11.722;2023-01-25T03:32:06;103223.19;;;1.80;100.00
47670;BME280;33408;52.062;11.722;2023-01-25T03:34:34;103219.03;;;1.82;100.00
47670;BME280;33408;52.062;11.722;2023-01-25T03:37:01;103219.72;;;1.80;100.00
47670;BME280;33408;52.062;11.722;2023-01-25T03:39:28;103220.97;;;1.87;100.00
47670;BME280;33408;52.062;11.722;2023-01-25T03:41:54;103225.28;;;1.88;100.00
47670;BME280;33408;52.062;11.722;2023-01-25T03:44:21;103215.06;;;1.88;100.00
47670;BME280;33408;52.062;11.722;2023-01-25T03:46:47;103212.16;;;1.81;100.00
47670;BME280;33408;52.062;11.722;2023-01-25T03:49:14;103206.44;;;1.86;100.00
47670;BME280;33408;52.062;11.722;2023-01-25T03:51:42;103201.31;;;1.86;100.00
47670;BME280;33408;52.062;11.722;2023-01-25T03:54:08;103200.16;;;1.95;100.00
47670;BME280;33408;52.062;11.722;2023-01-25T03:56:35;103192.72;;;1.85;100.00
47670;BME280;33408;52.062;11.722;2023-01-25T03:59:02;103192.91;;;2.03;100.00
47670;BME280;33408;52.062;11.722;2023-01-25T04:01:29;103195.97;;;2.12;100.00
47670;BME280;33408;52.062;11.722;2023-01-25T04:03:55;103184.44;;;2.04;100.00
47670;BME280;33408;52.062;11.722;2023-01-25T04:06:22;103183.28;;;1.99;100.00
47670;BME280;33408;52.062;11.722;2023-01-25T04:08:50;103178.38;;;1.87;100.00
47670;BME280;33408;52.062;11.722;2023-01-25T04:11:16;103184.75;;;1.79;100.00
47670;BME280;33408;52.062;11.722;2023-01-25T04:13:43;103177.50;;;1.72;100.00
47670;BME280;33408;52.062;11.722;2023-01-25T04:16:09;103181.03;;;1.89;100.00
47670;BME280;33408;52.062;11.722;2023-01-25T04:18:37;103176.00;;;1.90;100.00
47670;BME280;33408;52.062;11.722;2023-01-25T04:21:04;103171.22;;;1.81;100.00
47670;BME280;33408;52.062;11.722;2023-01-25T04:23:31;103169.97;;;1.90;100.00
47670;BME280;33408;52.062;11.722;2023-01-25T04:26:00;103165.69;;;1.89;100.00
47670;BME280;33408;52.062;11.722;2023-01-25T04:28:27;103162.59;;;1.79;100.00
47670;BME280;33408;52.062;11.722;2023-01-25T04:30:55;103161.16;;;1.85;100.00
47670;BME280;33408;52.062;11.722;2023-01-25T04:33:22;103161.44;;;1.89;100.00
47670;BME280;33408;52.062;11.722;2023-01-25T04:35:48;103155.94;;;1.98;100.00
47670;BME280;33408;52.062;11.722;2023-01-25T04:38:15;103157.09;;;1.88;100.00
47670;BME280;33408;52.062;11.722;2023-01-25T04:40:42;103146.28;;;1.77;100.00
47670;BME280;33408;52.062;11.722;2023-01-25T04:43:11;103145.47;;;1.78;100.00
47670;BME280;33408;52.062;11.722;2023-01-25T04:45:39;103150.00;;;1.68;100.00
47670;BME280;33408;52.062;11.722;2023-01-25T04:48:08;103144.16;;;1.70;100.00
47670;BME280;33408;52.062;11.722;2023-01-25T04:50:35;103141.25;;;1.64;100.00
47670;BME280;33408;52.062;11.722;2023-01-25T04:53:02;103140.38;;;1.63;100.00
47670;BME280;33408;52.062;11.722;2023-01-25T04:55:28;103138.69;;;1.64;100.00
47670;BME280;33408;52.062;11.722;2023-01-25T04:57:55;103134.56;;;1.66;100.00
47670;BME280;33408;52.062;11.722;2023-01-25T05:00:23;103137.97;;;1.81;100.00
47670;BME280;33408;52.062;11.722;2023-01-25T05:02:49;103132.88;;;1.67;100.00
47670;BME280;33408;52.062;11.722;2023-01-25T05:05:16;103134.66;;;1.68;100.00
47670;BME280;33408;52.062;11.722;2023-01-25T05:07:43;103136.03;;;1.62;100.00
47670;BME280;33408;52.062;11.722;2023-01-25T05:10:10;103134.63;;;1.53;100.00
47670;BME280;33408;52.062;11.722;2023-01-25T05:12:36;103132.44;;;1.44;100.00
47670;BME280;33408;52.062;11.722;2023-01-25T05:15:04;103147.50;;;1.39;100.00
47670;BME280;33408;52.062;11.722;2023-01-25T05:17:33;103147.88;;;1.45;100.00
47670;BME280;33408;52.062;11.722;2023-01-25T05:20:00;103148.47;;;1.41;100.00
47670;BME280;33408;52.062;11.722;2023-01-25T05:22:26;103143.63;;;1.46;100.00
47670;BME280;33408;52.062;11.722;2023-01-25T05:24:53;103145.41;;;1.47;100.00
47670;BME280;33408;52.062;11.722;2023-01-25T05:27:20;103144.50;;;1.32;100.00
47670;BME280;33408;52.062;11.722;2023-01-25T05:29:46;103125.84;;;1.33;100.00
47670;BME280;33408;52.062;11.722;2023-01-25T05:32:14;103129.94;;;1.16;100.00
47670;BME280;33408;52.062;11.722;2023-01-25T05:34:42;103126.38;;;1.42;100.00
47670;BME280;33408;52.062;11.722;2023-01-25T05:37:11;103130.50;;;1.40;100.00
47670;BME280;33408;52.062;11.722;2023-01-25T05:39:38;103131.03;;;1.34;100.00
47670;BME280;33408;52.062;11.722;2023-01-25T05:42:09;103138.78;;;1.21;100.00
47670;BME280;33408;52.062;11.722;2023-01-25T05:44:36;103134.78;;;1.11;100.00
47670;BME280;33408;52.062;11.722;2023-01-25T05:47:02;103127.13;;;1.11;100.00
47670;BME280;33408;52.062;11.722;2023-01-25T05:49:29;103128.97;;;1.14;100.00
47670;BME280;33408;52.062;11.722;2023-01-25T05:51:57;103129.53;;;1.08;100.00
47670;BME280;33408;52.062;11.722;2023-01-25T05:54:23;103116.28;;;1.00;100.00
47670;BME280;33408;52.062;11.722;2023-01-25T05:56:50;103126.44;;;1.14;100.00
47670;BME280;33408;52.062;11.722;2023-01-25T05:59:17;103128.19;;;1.15;100.00
47670;BME280;33408;52.062;11.722;2023-01-25T06:01:43;103132.97;;;1.23;100.00
47670;BME280;33408;52.062;11.722;2023-01-25T06:04:12;103117.44;;;1.20;100.00
47670;BME280;33408;52.062;11.722;2023-01-25T06:06:39;103123.97;;;1.30;100.00
47670;BME280;33408;52.062;11.722;2023-01-25T06:09:09;103127.75;;;1.22;100.00
47670;BME280;33408;52.062;11.722;2023-01-25T06:11:36;103117.03;;;1.42;100.00
47670;BME280;33408;52.062;11.722;2023-01-25T06:14:02;103112.19;;;1.47;100.00
47670;BME280;33408;52.062;11.722;2023-01-25T06:16:29;103113.13;;;1.49;100.00
47670;BME280;33408;52.062;11.722;2023-01-25T06:18:55;103112.09;;;1.45;100.00
47670;BME280;33408;52.062;11.722;2023-01-25T06:21:22;103108.22;;;1.22;100.00
47670;BME280;33408;52.062;11.722;2023-01-25T06:23:48;103106.53;;;1.23;100.00
47670;BME280;33408;52.062;11.722;2023-01-25T06:26:16;103098.97;;;1.24;100.00
47670;BME280;33408;52.062;11.722;2023-01-25T06:28:43;103104.75;;;1.07;100.00
47670;BME280;33408;52.062;11.722;2023-01-25T06:31:11;103099.91;;;1.12;100.00
47670;BME280;33408;52.062;11.722;2023-01-25T06:33:38;103094.91;;;1.13;100.00
47670;BME280;33408;52.062;11.722;2023-01-25T06:36:07;103095.50;;;1.24;100.00
47670;BME280;33408;52.062;11.722;2023-01-25T06:38:35;103093.03;;;1.25;100.00
47670;BME280;33408;52.062;11.722;2023-01-25T06:41:05;103090.03;;;1.03;100.00
47670;BME280;33408;52.062;11.722;2023-01-25T06:43:33;103083.78;;;1.13;100.00
47670;BME280;33408;52.062;11.722;2023-01-25T06:46:01;103086.41;;;0.99;100.00
47670;BME280;33408;52.062;11.722;2023-01-25T06:48:28;103086.69;;;1.04;100.00
47670;BME280;33408;52.062;11.722;2023-01-25T06:50:56;103078.66;;;1.13;100.00
47670;BME280;33408;52.062;11.722;2023-01-25T06:53:24;103089.59;;;0.95;100.00
47670;BME280;33408;52.062;11.722;2023-01-25T06:55:59;103089.16;;;1.17;100.00
47670;BME280;33408;52.062;11.722;2023-01-25T06:58:27;103086.19;;;1.24;100.00
47670;BME280;33408;52.062;11.722;2023-01-25T07:00:59;103086.69;;;1.04;100.00
47670;BME280;33408;52.062;11.722;2023-01-25T07:03:26;103080.03;;;1.21;100.00
47670;BME280;33408;52.062;11.722;2023-01-25T07:05:56;103079.75;;;1.16;100.00
47670;BME280;33408;52.062;11.722;2023-01-25T07:08:23;103082.81;;;1.11;100.00
47670;BME280;33408;52.062;11.722;2023-01-25T07:10:52;103087.13;;;0.97;100.00
47670;BME280;33408;52.062;11.722;2023-01-25T07:13:19;103084.22;;;1.20;100.00
47670;BME280;33408;52.062;11.722;2023-01-25T07:15:51;103074.88;;;1.06;100.00
47670;BME280;33408;52.062;11.722;2023-01-25T07:18:19;103076.47;;;1.19;100.00
47670;BME280;33408;52.062;11.722;2023-01-25T07:20:46;103068.53;;;1.14;100.00
47670;BME280;33408;52.062;11.722;2023-01-25T07:23:12;103072.16;;;1.03;100.00
47670;BME280;33408;52.062;11.722;2023-01-25T07:25:42;103071.47;;;1.05;100.00
47670;BME280;33408;52.062;11.722;2023-01-25T07:28:09;103072.16;;;1.03;100.00
47670;BME280;33408;52.062;11.722;2023-01-25T07:30:35;103072.06;;;1.01;100.00
47670;BME280;33408;52.062;11.722;2023-01-25T07:33:02;103067.56;;;0.97;100.00
47670;BME280;33408;52.062;11.722;2023-01-25T07:35:31;103066.94;;;1.01;100.00
47670;BME280;33408;52.062;11.722;2023-01-25T07:37:57;103074.59;;;1.01;100.00
47670;BME280;33408;52.062;11.722;2023-01-25T07:40:24;103063.69;;;1.04;100.00
47670;BME280;33408;52.062;11.722;2023-01-25T07:42:51;103067.91;;;0.88;100.00
47670;BME280;33408;52.062;11.722;2023-01-25T07:45:18;103065.97;;;0.99;100.00
47670;BME280;33408;52.062;11.722;2023-01-25T07:47:45;103064.53;;;0.75;100.00
47670;BME280;33408;52.062;11.722;2023-01-25T07:50:12;103065.00;;;0.82;100.00
47670;BME280;33408;52.062;11.722;2023-01-25T07:52:40;103068.44;;;0.83;100.00
47670;BME280;33408;52.062;11.722;2023-01-25T07:55:07;103070.13;;;1.12;100.00
47670;BME280;33408;52.062;11.722;2023-01-25T07:57:34;103061.25;;;1.05;100.00
47670;BME280;33408;52.062;11.722;2023-01-25T08:00:01;103065.38;;;1.18;100.00
47670;BME280;33408;52.062;11.722;2023-01-25T08:02:28;103051.13;;;1.07;100.00
47670;BME280;33408;52.062;11.722;2023-01-25T08:04:54;103055.41;;;0.93;100.00
47670;BME280;33408;52.062;11.722;2023-01-25T08:07:21;103064.28;;;0.85;100.00
47670;BME280;33408;52.062;11.722;2023-01-25T08:09:49;103066.56;;;0.80;100.00
47670;BME280;33408;52.062;11.722;2023-01-25T08:12:16;103062.28;;;0.94;100.00
47670;BME280;33408;52.062;11.722;2023-01-25T08:14:43;103058.78;;;1.07;100.00
47670;BME280;33408;52.062;11.722;2023-01-25T08:17:09;103062.84;;;1.03;100.00
47670;BME280;33408;52.062;11.722;2023-01-25T08:19:36;103059.81;;;0.81;100.00
47670;BME280;33408;52.062;11.722;2023-01-25T08:22:03;103066.16;;;0.87;100.00
47670;BME280;33408;52.062;11.722;2023-01-25T08:24:32;103063.75;;;0.76;100.00
47670;BME280;33408;52.062;11.722;2023-01-25T08:27:00;103056.72;;;1.01;100.00
47670;BME280;33408;52.062;11.722;2023-01-25T08:29:27;103048.81;;;1.12;100.00
47670;BME280;33408;52.062;11.722;2023-01-25T08:31:53;103056.75;;;1.16;100.00
47670;BME280;33408;52.062;11.722;2023-01-25T08:34:20;103046.97;;;1.24;100.00
47670;BME280;33408;52.062;11.722;2023-01-25T08:36:46;103046.34;;;1.28;100.00
47670;BME280;33408;52.062;11.722;2023-01-25T08:39:14;103044.50;;;1.40;100.00
47670;BME280;33408;52.062;11.722;2023-01-25T08:41:42;103045.31;;;1.24;100.00
47670;BME280;33408;52.062;11.722;2023-01-25T08:44:11;103043.63;;;1.25;100.00
47670;BME280;33408;52.062;11.722;2023-01-25T08:46:37;103040.63;;;1.02;100.00
47670;BME280;33408;52.062;11.722;2023-01-25T08:49:04;103040.53;;;0.86;100.00
47670;BME280;33408;52.062;11.722;2023-01-25T08:51:32;103042.63;;;0.93;100.00
47670;BME280;33408;52.062;11.722;2023-01-25T08:54:01;103035.25;;;0.98;100.00
47670;BME280;33408;52.062;11.722;2023-01-25T08:56:28;103040.72;;;1.04;100.00
47670;BME280;33408;52.062;11.722;2023-01-25T08:58:55;103032.44;;;1.23;100.00
47670;BME280;33408;52.062;11.722;2023-01-25T09:01:23;103030.41;;;1.32;100.00
47670;BME280;33408;52.062;11.722;2023-01-25T09:03:50;103033.13;;;1.20;100.00
47670;BME280;33408;52.062;11.722;2023-01-25T09:06:17;103024.06;;;1.11;100.00
47670;BME280;33408;52.062;11.722;2023-01-25T09:08:45;103019.03;;;1.12;100.00
47670;BME280;33408;52.062;11.722;2023-01-25T09:11:13;103021.25;;;0.91;100.00
47670;BME280;33408;52.062;11.722;2023-01-25T09:13:40;103011.47;;;0.84;100.00
47670;BME280;33408;52.062;11.722;2023-01-25T09:16:09;102997.66;;;0.95;100.00
47670;BME280;33408;52.062;11.722;2023-01-25T09:18:38;103005.31;;;1.10;100.00
47670;BME280;33408;52.062;11.722;2023-01-25T09:21:06;102998.59;;;1.12;100.00
47670;BME280;33408;52.062;11.722;2023-01-25T09:23:33;103002.56;;;1.22;100.00
47670;BME280;33408;52.062;11.722;2023-01-25T09:26:00;103006.72;;;1.20;100.00
47670;BME280;33408;52.062;11.722;2023-01-25T09:28:28;103007.22;;;1.14;100.00
47670;BME280;33408;52.062;11.722;2023-01-25T09:30:55;102995.84;;;1.24;100.00
47670;BME280;33408;52.062;11.722;2023-01-25T09:33:24;102993.75;;;1.32;100.00
47670;BME280;33408;52.062;11.722;2023-01-25T09:35:52;102995.44;;;1.16;100.00
47670;BME280;33408;52.062;11.722;2023-01-25T09:38:19;102986.78;;;1.14;100.00
47670;BME280;33408;52.062;11.722;2023-01-25T09:40:56;102994.91;;;1.07;100.00
47670;BME280;33408;52.062;11.722;2023-01-25T09:43:38;102993.06;;;0.75;100.00
47670;BME280;33408;52.062;11.722;2023-01-25T09:46:13;102994.28;;;0.96;100.00
47670;BME280;33408;52.062;11.722;2023-01-25T09:48:46;102991.38;;;0.75;100.00
47670;BME280;33408;52.062;11.722;2023-01-25T09:51:22;102991.19;;;0.87;100.00
47670;BME280;33408;52.062;11.722;2023-01-25T09:53:52;102993.97;;;1.05;100.00
47670;BME280;33408;52.062;11.722;2023-01-25T09:56:23;102983.81;;;1.21;100.00
47670;BME280;33408;52.062;11.722;2023-01-25T09:58:53;102987.53;;;1.12;100.00
47670;BME280;33408;52.062;11.722;2023-01-25T10:01:26;102984.06;;;1.11;100.00
47670;BME280;33408;52.062;11.722;2023-01-25T10:03:56;102976.34;;;1.09;100.00
47670;BME280;33408;52.062;11.722;2023-01-25T10:06:35;102974.06;;;0.84;100.00
47670;BME280;33408;52.062;11.722;2023-01-25T10:09:10;102969.91;;;1.01;100.00
47670;BME280;33408;52.062;11.722;2023-01-25T10:11:41;102967.44;;;0.88;100.00
47670;BME280;33408;52.062;11.722;2023-01-25T10:14:12;102962.59;;;0.93;100.00
47670;BME280;33408;52.062;11.722;2023-01-25T10:16:49;102955.81;;;1.08;100.00
47670;BME280;33408;52.062;11.722;2023-01-25T10:19:24;102954.41;;;1.13;100.00
47670;BME280;33408;52.062;11.722;2023-01-25T10:22:00;102953.34;;;1.09;100.00
47670;BME280;33408;52.062;11.722;2023-01-25T10:24:47;102940.91;;;1.16;100.00
47670;BME280;33408;52.062;11.722;2023-01-25T10:27:26;102933.91;;;0.97;100.00
47670;BME280;33408;52.062;11.722;2023-01-25T10:29:56;102930.03;;;0.73;100.00
47670;BME280;33408;52.062;11.722;2023-01-25T10:32:26;102922.69;;;0.95;100.00
47670;BME280;33408;52.062;11.722;2023-01-25T10:34:57;102914.97;;;1.08;100.00
47670;BME280;33408;52.062;11.722;2023-01-25T10:37:30;102920.19;;;1.11;100.00
47670;BME280;33408;52.062;11.722;2023-01-25T10:40:02;102912.47;;;0.95;100.00
47670;BME280;33408;52.062;11.722;2023-01-25T10:42:32;102914.78;;;0.90;100.00
47670;BME280;33408;52.062;11.722;2023-01-25T10:45:09;102906.66;;;1.12;100.00
47670;BME280;33408;52.062;11.722;2023-01-25T10:47:39;102901.56;;;0.97;100.00
47670;BME280;33408;52.062;11.722;2023-01-25T10:50:08;102898.78;;;1.24;100.00
47670;BME280;33408;52.062;11.722;2023-01-25T10:52:36;102888.16;;;1.16;100.00
47670;BME280;33408;52.062;11.722;2023-01-25T10:55:12;102885.34;;;1.12;100.00
47670;BME280;33408;52.062;11.722;2023-01-25T10:57:42;102879.19;;;0.93;100.00
47670;BME280;33408;52.062;11.722;2023-01-25T11:00:22;102876.06;;;0.82;100.00
47670;BME280;33408;52.062;11.722;2023-01-25T11:02:49;102876.81;;;0.96;100.00
47670;BME280;33408;52.062;11.722;2023-01-25T11:05:29;102877.78;;;0.98;100.00
47670;BME280;33408;52.062;11.722;2023-01-25T11:07:58;102874.53;;;1.01;100.00
47670;BME280;33408;52.062;11.722;2023-01-25T11:10:44;102869.59;;;1.04;100.00
47670;BME280;33408;52.062;11.722;2023-01-25T11:13:22;102869.34;;;1.31;100.00
47670;BME280;33408;52.062;11.722;2023-01-25T11:15:51;102856.78;;;1.35;100.00
47670;BME280;33408;52.062;11.722;2023-01-25T11:18:23;102852.19;;;1.44;100.00
47670;BME280;33408;52.062;11.722;2023-01-25T11:21:04;102853.31;;;1.02;100.00
47670;BME280;33408;52.062;11.722;2023-01-25T11:23:34;102850.75;;;0.87;100.00
47670;BME280;33408;52.062;11.722;2023-01-25T11:26:12;102844.09;;;0.89;100.00
47670;BME280;33408;52.062;11.722;2023-01-25T11:28:40;102841.66;;;1.07;100.00
47670;BME280;33408;52.062;11.722;2023-01-25T11:31:10;102831.47;;;1.23;100.00
47670;BME280;33408;52.062;11.722;2023-01-25T11:33:38;102818.31;;;1.32;100.00
47670;BME280;33408;52.062;11.722;2023-01-25T11:36:13;102819.53;;;1.39;100.00
47670;BME280;33408;52.062;11.722;2023-01-25T11:38:52;102811.84;;;1.55;100.00
47670;BME280;33408;52.062;11.722;2023-01-25T11:41:27;102806.66;;;1.70;100.00
47670;BME280;33408;52.062;11.722;2023-01-25T11:44:17;102805.19;;;1.75;100.00
47670;BME280;33408;52.062;11.722;2023-01-25T11:46:56;102795.16;;;1.45;100.00
47670;BME280;33408;52.062;11.722;2023-01-25T11:49:37;102794.03;;;1.24;100.00
47670;BME280;33408;52.062;11.722;2023-01-25T11:52:16;102788.81;;;1.06;100.00
47670;BME280;33408;52.062;11.722;2023-01-25T11:54:57;102792.81;;;1.17;100.00
47670;BME280;33408;52.062;11.722;2023-01-25T11:57:38;102784.03;;;1.28;100.00
47670;BME280;33408;52.062;11.722;2023-01-25T12:00:20;102781.28;;;1.40;100.00
47670;BME280;33408;52.062;11.722;2023-01-25T12:05:52;102774.66;;;1.27;100.00
47670;BME280;33408;52.062;11.722;2023-01-25T12:08:31;102764.78;;;1.02;100.00
47670;BME280;33408;52.062;11.722;2023-01-25T12:11:06;102765.28;;;1.12;100.00
47670;BME280;33408;52.062;11.722;2023-01-25T12:13:40;102761.72;;;0.93;100.00
47670;BME280;33408;52.062;11.722;2023-01-25T12:16:21;102748.69;;;1.03;100.00
47670;BME280;33408;52.062;11.722;2023-01-25T12:19:04;102745.56;;;1.25;100.00
47670;BME280;33408;52.062;11.722;2023-01-25T12:21:44;102739.09;;;1.16;100.00
47670;BME280;33408;52.062;11.722;2023-01-25T12:24:33;102738.47;;;1.36;100.00
47670;BME280;33408;52.062;11.722;2023-01-25T12:27:14;102719.31;;;1.12;100.00
47670;BME280;33408;52.062;11.722;2023-01-25T12:29:46;102719.31;;;1.28;100.00
47670;BME280;33408;52.062;11.722;2023-01-25T12:32:18;102711.56;;;1.10;100.00
47670;BME280;33408;52.062;11.722;2023-01-25T12:34:51;102706.28;;;1.07;100.00
47670;BME280;33408;52.062;11.722;2023-01-25T12:37:25;102708.75;;;1.22;100.00
47670;BME280;33408;52.062;11.722;2023-01-25T12:39:57;102699.66;;;1.11;100.00
47670;BME280;33408;52.062;11.722;2023-01-25T12:42:31;102698.31;;;1.17;100.00
47670;BME280;33408;52.062;11.722;2023-01-25T12:45:05;102699.03;;;1.15;100.00
47670;BME280;33408;52.062;11.722;2023-01-25T12:47:38;102699.09;;;1.33;100.00
47670;BME280;33408;52.062;11.722;2023-01-25T12:50:16;102684.97;;;1.23;100.00
47670;BME280;33408;52.062;11.722;2023-01-25T12:52:46;102671.88;;;1.33;100.00
47670;BME280;33408;52.062;11.722;2023-01-25T12:55:15;102671.00;;;1.00;100.00
47670;BME280;33408;52.062;11.722;2023-01-25T12:57:50;102675.06;;;1.13;100.00
47670;BME280;33408;52.062;11.722;2023-01-25T13:00:22;102678.38;;;1.10;100.00
47670;BME280;33408;52.062;11.722;2023-01-25T13:03:03;102677.78;;;1.16;100.00
47670;BME280;33408;52.062;11.722;2023-01-25T13:05:37;102672.16;;;1.05;100.00
47670;BME280;33408;52.062;11.722;2023-01-25T13:08:13;102662.16;;;1.09;100.00